sensor_id;sensor_type;location;lat;lon;timestamp;P1;durP1;ratioP1;P2;durP2;ratioP2
43345;SDS011;28937;51.160;4.146;2022-08-19T00:01:22;19.55;;;17.77;;
43345;SDS011;28937;51.160;4.146;2022-08-19T00:03:49;21.35;;;19.48;;
43345;SDS011;28937;51.160;4.146;2022-08-19T00:06:15;23.25;;;21.15;;
43345;SDS011;28937;51.160;4.146;2022-08-19T00:08:41;21.83;;;19.63;;
43345;SDS011;28937;51.160;4.146;2022-08-19T00:11:08;22.35;;;20.38;;
43345;SDS011;28937;51.160;4.146;2022-08-19T00:13:34;22.00;;;20.17;;
43345;SDS011;28937;51.160;4.146;2022-08-19T00:16:00;21.95;;;19.92;;
43345;SDS011;28937;51.160;4.146;2022-08-19T00:18:27;22.38;;;20.48;;
43345;SDS011;28937;51.160;4.146;2022-08-19T00:20:53;23.05;;;20.83;;
43345;SDS011;28937;51.160;4.146;2022-08-19T00:23:18;22.90;;;20.92;;
43345;SDS011;28937;51.160;4.146;2022-08-19T00:25:44;25.77;;;23.40;;
43345;SDS011;28937;51.160;4.146;2022-08-19T00:28:10;25.25;;;22.92;;
43345;SDS011;28937;51.160;4.146;2022-08-19T00:30:35;26.85;;;24.40;;
43345;SDS011;28937;51.160;4.146;2022-08-19T00:33:01;24.35;;;22.02;;
43345;SDS011;28937;51.160;4.146;2022-08-19T00:35:27;25.25;;;22.73;;
43345;SDS011;28937;51.160;4.146;2022-08-19T00:37:53;25.38;;;22.88;;
43345;SDS011;28937;51.160;4.146;2022-08-19T00:40:19;26.20;;;23.90;;
43345;SDS011;28937;51.160;4.146;2022-08-19T00:42:45;26.02;;;23.52;;
43345;SDS011;28937;51.160;4.146;2022-08-19T00:45:13;27.90;;;25.13;;
43345;SDS011;28937;51.160;4.146;2022-08-19T00:47:42;27.80;;;25.17;;
43345;SDS011;28937;51.160;4.146;2022-08-19T00:50:09;29.10;;;26.35;;
43345;SDS011;28937;51.160;4.146;2022-08-19T00:52:40;29.50;;;26.60;;
43345;SDS011;28937;51.160;4.146;2022-08-19T00:55:10;26.08;;;23.77;;
43345;SDS011;28937;51.160;4.146;2022-08-19T00:57:41;25.27;;;22.85;;
43345;SDS011;28937;51.160;4.146;2022-08-19T01:00:11;25.77;;;23.30;;
43345;SDS011;28937;51.160;4.146;2022-08-19T01:02:39;26.15;;;23.75;;
43345;SDS011;28937;51.160;4.146;2022-08-19T01:05:08;28.60;;;25.90;;
43345;SDS011;28937;51.160;4.146;2022-08-19T01:07:37;24.88;;;22.58;;
43345;SDS011;28937;51.160;4.146;2022-08-19T01:10:08;23.77;;;21.35;;
43345;SDS011;28937;51.160;4.146;2022-08-19T01:12:37;22.50;;;20.50;;
43345;SDS011;28937;51.160;4.146;2022-08-19T01:15:04;23.83;;;21.55;;
43345;SDS011;28937;51.160;4.146;2022-08-19T01:17:32;23.75;;;21.45;;
43345;SDS011;28937;51.160;4.146;2022-08-19T01:20:00;24.08;;;21.73;;
43345;SDS011;28937;51.160;4.146;2022-08-19T01:22:35;22.85;;;20.55;;
43345;SDS011;28937;51.160;4.146;2022-08-19T01:25:07;23.02;;;20.70;;
43345;SDS011;28937;51.160;4.146;2022-08-19T01:27:40;23.55;;;21.25;;
43345;SDS011;28937;51.160;4.146;2022-08-19T01:30:09;23.27;;;20.90;;
43345;SDS011;28937;51.160;4.146;2022-08-19T01:32:37;24.02;;;21.63;;
43345;SDS011;28937;51.160;4.146;2022-08-19T01:35:03;22.30;;;20.15;;
43345;SDS011;28937;51.160;4.146;2022-08-19T01:37:30;22.70;;;20.42;;
43345;SDS011;28937;51.160;4.146;2022-08-19T01:40:07;24.15;;;21.80;;
43345;SDS011;28937;51.160;4.146;2022-08-19T01:42:33;23.50;;;21.20;;
43345;SDS011;28937;51.160;4.146;2022-08-19T01:45:00;23.60;;;21.35;;
43345;SDS011;28937;51.160;4.146;2022-08-19T01:47:25;23.48;;;21.08;;
43345;SDS011;28937;51.160;4.146;2022-08-19T01:49:51;24.30;;;21.73;;
43345;SDS011;28937;51.160;4.146;2022-08-19T01:52:17;23.65;;;21.35;;
43345;SDS011;28937;51.160;4.146;2022-08-19T01:54:42;23.83;;;21.52;;
43345;SDS011;28937;51.160;4.146;2022-08-19T01:57:08;23.08;;;20.70;;
43345;SDS011;28937;51.160;4.146;2022-08-19T01:59:37;23.92;;;21.63;;
43345;SDS011;28937;51.160;4.146;2022-08-19T02:02:05;24.30;;;22.08;;
43345;SDS011;28937;51.160;4.146;2022-08-19T02:04:35;23.88;;;21.52;;
43345;SDS011;28937;51.160;4.146;2022-08-19T02:07:02;23.70;;;21.20;;
43345;SDS011;28937;51.160;4.146;2022-08-19T02:09:30;23.88;;;21.67;;
43345;SDS011;28937;51.160;4.146;2022-08-19T02:11:56;22.52;;;20.40;;
43345;SDS011;28937;51.160;4.146;2022-08-19T02:14:22;26.02;;;23.42;;
43345;SDS011;28937;51.160;4.146;2022-08-19T02:16:47;24.05;;;21.45;;
43345;SDS011;28937;51.160;4.146;2022-08-19T02:19:13;22.98;;;20.77;;
43345;SDS011;28937;51.160;4.146;2022-08-19T02:21:39;26.20;;;23.60;;
43345;SDS011;28937;51.160;4.146;2022-08-19T02:24:04;24.60;;;22.17;;
43345;SDS011;28937;51.160;4.146;2022-08-19T02:26:31;25.25;;;22.77;;
43345;SDS011;28937;51.160;4.146;2022-08-19T02:28:57;24.00;;;21.73;;
43345;SDS011;28937;51.160;4.146;2022-08-19T02:31:24;24.05;;;21.52;;
43345;SDS011;28937;51.160;4.146;2022-08-19T02:33:50;22.48;;;20.35;;
43345;SDS011;28937;51.160;4.146;2022-08-19T02:36:17;23.02;;;20.73;;
43345;SDS011;28937;51.160;4.146;2022-08-19T02:38:43;21.50;;;19.30;;
43345;SDS011;28937;51.160;4.146;2022-08-19T02:41:16;23.85;;;21.45;;
43345;SDS011;28937;51.160;4.146;2022-08-19T02:43:45;23.80;;;21.30;;
43345;SDS011;28937;51.160;4.146;2022-08-19T02:46:15;23.00;;;20.77;;
43345;SDS011;28937;51.160;4.146;2022-08-19T02:48:49;21.58;;;19.48;;
43345;SDS011;28937;51.160;4.146;2022-08-19T02:51:18;22.52;;;20.23;;
43345;SDS011;28937;51.160;4.146;2022-08-19T02:53:47;23.17;;;20.77;;
43345;SDS011;28937;51.160;4.146;2022-08-19T02:56:13;22.90;;;20.50;;
43345;SDS011;28937;51.160;4.146;2022-08-19T02:58:39;21.00;;;18.85;;
43345;SDS011;28937;51.160;4.146;2022-08-19T03:01:05;23.55;;;19.35;;
43345;SDS011;28937;51.160;4.146;2022-08-19T03:03:30;19.88;;;17.98;;
43345;SDS011;28937;51.160;4.146;2022-08-19T03:06:30;21.23;;;19.02;;
43345;SDS011;28937;51.160;4.146;2022-08-19T03:08:50;19.73;;;17.80;;
43345;SDS011;28937;51.160;4.146;2022-08-19T03:11:16;19.05;;;17.15;;
43345;SDS011;28937;51.160;4.146;2022-08-19T03:13:43;20.73;;;18.52;;
43345;SDS011;28937;51.160;4.146;2022-08-19T03:16:08;17.25;;;15.48;;
43345;SDS011;28937;51.160;4.146;2022-08-19T03:18:35;19.02;;;17.02;;
43345;SDS011;28937;51.160;4.146;2022-08-19T03:21:00;20.15;;;17.30;;
43345;SDS011;28937;51.160;4.146;2022-08-19T03:23:26;20.27;;;16.10;;
43345;SDS011;28937;51.160;4.146;2022-08-19T03:25:52;19.48;;;17.52;;
43345;SDS011;28937;51.160;4.146;2022-08-19T03:28:19;19.13;;;17.08;;
43345;SDS011;28937;51.160;4.146;2022-08-19T03:30:58;17.27;;;15.43;;
43345;SDS011;28937;51.160;4.146;2022-08-19T03:33:26;19.92;;;16.08;;
43345;SDS011;28937;51.160;4.146;2022-08-19T03:38:43;18.15;;;16.30;;
43345;SDS011;28937;51.160;4.146;2022-08-19T03:41:12;18.77;;;15.85;;
43345;SDS011;28937;51.160;4.146;2022-08-19T03:43:40;15.55;;;14.15;;
43345;SDS011;28937;51.160;4.146;2022-08-19T03:46:07;17.05;;;14.93;;
43345;SDS011;28937;51.160;4.146;2022-08-19T03:48:38;16.10;;;14.43;;
43345;SDS011;28937;51.160;4.146;2022-08-19T03:51:06;17.38;;;15.55;;
43345;SDS011;28937;51.160;4.146;2022-08-19T03:53:33;16.42;;;14.65;;
43345;SDS011;28937;51.160;4.146;2022-08-19T03:55:59;16.70;;;15.00;;
43345;SDS011;28937;51.160;4.146;2022-08-19T03:58:27;15.13;;;13.40;;
43345;SDS011;28937;51.160;4.146;2022-08-19T04:00:54;15.75;;;14.13;;
43345;SDS011;28937;51.160;4.146;2022-08-19T04:03:26;15.25;;;13.65;;
43345;SDS011;28937;51.160;4.146;2022-08-19T04:05:51;16.58;;;14.98;;
43345;SDS011;28937;51.160;4.146;2022-08-19T04:08:18;16.23;;;13.55;;
43345;SDS011;28937;51.160;4.146;2022-08-19T04:10:47;19.48;;;15.23;;
43345;SDS011;28937;51.160;4.146;2022-08-19T04:13:17;14.48;;;12.48;;
43345;SDS011;28937;51.160;4.146;2022-08-19T04:15:44;14.05;;;12.73;;
43345;SDS011;28937;51.160;4.146;2022-08-19T04:18:12;15.82;;;13.82;;
43345;SDS011;28937;51.160;4.146;2022-08-19T04:20:45;14.30;;;12.88;;
43345;SDS011;28937;51.160;4.146;2022-08-19T04:23:13;14.68;;;13.10;;
43345;SDS011;28937;51.160;4.146;2022-08-19T04:25:42;14.27;;;12.82;;
43345;SDS011;28937;51.160;4.146;2022-08-19T04:28:08;13.88;;;12.18;;
43345;SDS011;28937;51.160;4.146;2022-08-19T04:30:43;14.07;;;12.38;;
43345;SDS011;28937;51.160;4.146;2022-08-19T04:33:13;16.73;;;13.25;;
43345;SDS011;28937;51.160;4.146;2022-08-19T04:35:41;13.70;;;12.30;;
43345;SDS011;28937;51.160;4.146;2022-08-19T04:38:09;13.15;;;11.85;;
43345;SDS011;28937;51.160;4.146;2022-08-19T04:40:45;14.45;;;12.18;;
43345;SDS011;28937;51.160;4.146;2022-08-19T04:43:32;14.80;;;11.93;;
43345;SDS011;28937;51.160;4.146;2022-08-19T04:46:04;13.88;;;11.63;;
43345;SDS011;28937;51.160;4.146;2022-08-19T04:48:34;17.25;;;12.32;;
43345;SDS011;28937;51.160;4.146;2022-08-19T04:51:00;12.18;;;10.98;;
43345;SDS011;28937;51.160;4.146;2022-08-19T04:53:29;12.38;;;11.07;;
43345;SDS011;28937;51.160;4.146;2022-08-19T04:55:57;14.27;;;11.48;;
43345;SDS011;28937;51.160;4.146;2022-08-19T04:58:24;12.80;;;11.40;;
43345;SDS011;28937;51.160;4.146;2022-08-19T05:00:51;13.90;;;12.15;;
43345;SDS011;28937;51.160;4.146;2022-08-19T05:03:17;11.98;;;10.77;;
43345;SDS011;28937;51.160;4.146;2022-08-19T05:05:44;15.80;;;11.25;;
43345;SDS011;28937;51.160;4.146;2022-08-19T05:08:13;13.02;;;11.43;;
43345;SDS011;28937;51.160;4.146;2022-08-19T05:10:44;12.53;;;10.77;;
43345;SDS011;28937;51.160;4.146;2022-08-19T05:13:15;12.85;;;11.48;;
43345;SDS011;28937;51.160;4.146;2022-08-19T05:15:42;14.95;;;11.23;;
43345;SDS011;28937;51.160;4.146;2022-08-19T05:18:08;14.27;;;11.20;;
43345;SDS011;28937;51.160;4.146;2022-08-19T05:20:52;13.27;;;10.35;;
43345;SDS011;28937;51.160;4.146;2022-08-19T05:23:36;12.05;;;9.73;;
43345;SDS011;28937;51.160;4.146;2022-08-19T05:26:02;11.73;;;10.15;;
43345;SDS011;28937;51.160;4.146;2022-08-19T05:28:28;13.05;;;11.05;;
43345;SDS011;28937;51.160;4.146;2022-08-19T05:30:54;13.25;;;10.82;;
43345;SDS011;28937;51.160;4.146;2022-08-19T05:33:20;12.32;;;10.30;;
43345;SDS011;28937;51.160;4.146;2022-08-19T05:35:46;11.75;;;9.93;;
43345;SDS011;28937;51.160;4.146;2022-08-19T05:38:14;12.85;;;9.98;;
43345;SDS011;28937;51.160;4.146;2022-08-19T05:40:41;13.13;;;9.68;;
43345;SDS011;28937;51.160;4.146;2022-08-19T05:43:11;12.38;;;10.13;;
43345;SDS011;28937;51.160;4.146;2022-08-19T05:45:40;10.20;;;9.07;;
43345;SDS011;28937;51.160;4.146;2022-08-19T05:48:07;16.17;;;10.13;;
43345;SDS011;28937;51.160;4.146;2022-08-19T05:50:36;12.50;;;9.50;;
43345;SDS011;28937;51.160;4.146;2022-08-19T05:53:03;15.13;;;10.45;;
43345;SDS011;28937;51.160;4.146;2022-08-19T05:55:29;11.18;;;9.00;;
43345;SDS011;28937;51.160;4.146;2022-08-19T05:57:55;10.75;;;9.65;;
43345;SDS011;28937;51.160;4.146;2022-08-19T06:00:20;12.27;;;9.30;;
43345;SDS011;28937;51.160;4.146;2022-08-19T06:02:46;13.90;;;9.25;;
43345;SDS011;28937;51.160;4.146;2022-08-19T06:05:11;12.82;;;9.15;;
43345;SDS011;28937;51.160;4.146;2022-08-19T06:07:38;10.90;;;8.38;;
43345;SDS011;28937;51.160;4.146;2022-08-19T06:10:05;12.85;;;9.68;;
43345;SDS011;28937;51.160;4.146;2022-08-19T06:12:32;11.77;;;8.73;;
43345;SDS011;28937;51.160;4.146;2022-08-19T06:15:01;11.60;;;8.88;;
43345;SDS011;28937;51.160;4.146;2022-08-19T06:17:29;10.50;;;7.95;;
43345;SDS011;28937;51.160;4.146;2022-08-19T06:19:55;9.77;;;8.35;;
43345;SDS011;28937;51.160;4.146;2022-08-19T06:22:21;9.98;;;8.85;;
43345;SDS011;28937;51.160;4.146;2022-08-19T06:24:47;11.27;;;8.52;;
43345;SDS011;28937;51.160;4.146;2022-08-19T06:27:13;10.57;;;8.07;;
43345;SDS011;28937;51.160;4.146;2022-08-19T06:29:38;10.32;;;8.38;;
43345;SDS011;28937;51.160;4.146;2022-08-19T06:32:04;9.30;;;8.25;;
43345;SDS011;28937;51.160;4.146;2022-08-19T06:34:31;11.63;;;8.40;;
43345;SDS011;28937;51.160;4.146;2022-08-19T06:36:58;7.45;;;6.13;;
43345;SDS011;28937;51.160;4.146;2022-08-19T06:39:29;13.68;;;8.80;;
43345;SDS011;28937;51.160;4.146;2022-08-19T06:41:58;11.75;;;7.95;;
43345;SDS011;28937;51.160;4.146;2022-08-19T06:44:26;10.85;;;8.23;;
43345;SDS011;28937;51.160;4.146;2022-08-19T06:46:53;11.40;;;8.25;;
43345;SDS011;28937;51.160;4.146;2022-08-19T06:49:20;11.25;;;7.90;;
43345;SDS011;28937;51.160;4.146;2022-08-19T06:51:46;11.68;;;8.50;;
43345;SDS011;28937;51.160;4.146;2022-08-19T06:54:13;8.90;;;7.30;;
43345;SDS011;28937;51.160;4.146;2022-08-19T06:56:41;8.35;;;6.35;;
43345;SDS011;28937;51.160;4.146;2022-08-19T06:59:07;8.57;;;7.20;;
43345;SDS011;28937;51.160;4.146;2022-08-19T07:01:39;14.47;;;9.83;;
43345;SDS011;28937;51.160;4.146;2022-08-19T07:04:07;13.77;;;9.70;;
43345;SDS011;28937;51.160;4.146;2022-08-19T07:06:34;10.73;;;8.43;;
43345;SDS011;28937;51.160;4.146;2022-08-19T07:09:01;9.48;;;8.18;;
43345;SDS011;28937;51.160;4.146;2022-08-19T07:11:28;8.55;;;6.63;;
43345;SDS011;28937;51.160;4.146;2022-08-19T07:13:55;10.18;;;8.82;;
43345;SDS011;28937;51.160;4.146;2022-08-19T07:16:21;10.20;;;7.95;;
43345;SDS011;28937;51.160;4.146;2022-08-19T07:18:47;12.32;;;8.93;;
43345;SDS011;28937;51.160;4.146;2022-08-19T07:21:15;10.52;;;8.52;;
43345;SDS011;28937;51.160;4.146;2022-08-19T07:23:43;9.43;;;8.45;;
43345;SDS011;28937;51.160;4.146;2022-08-19T07:26:20;10.57;;;8.52;;
43345;SDS011;28937;51.160;4.146;2022-08-19T07:28:52;7.28;;;6.03;;
43345;SDS011;28937;51.160;4.146;2022-08-19T07:31:20;9.93;;;8.82;;
43345;SDS011;28937;51.160;4.146;2022-08-19T07:33:49;9.40;;;8.23;;
43345;SDS011;28937;51.160;4.146;2022-08-19T07:36:17;10.55;;;8.45;;
43345;SDS011;28937;51.160;4.146;2022-08-19T07:38:45;10.15;;;8.27;;
43345;SDS011;28937;51.160;4.146;2022-08-19T07:41:16;9.13;;;7.88;;
43345;SDS011;28937;51.160;4.146;2022-08-19T07:43:44;9.60;;;8.60;;
43345;SDS011;28937;51.160;4.146;2022-08-19T07:46:11;9.48;;;8.32;;
43345;SDS011;28937;51.160;4.146;2022-08-19T07:48:38;9.73;;;8.48;;
43345;SDS011;28937;51.160;4.146;2022-08-19T07:51:08;11.07;;;8.27;;
43345;SDS011;28937;51.160;4.146;2022-08-19T07:53:36;8.40;;;6.72;;
43345;SDS011;28937;51.160;4.146;2022-08-19T07:56:02;8.73;;;7.13;;
43345;SDS011;28937;51.160;4.146;2022-08-19T07:58:34;7.88;;;6.68;;
43345;SDS011;28937;51.160;4.146;2022-08-19T08:01:03;11.90;;;7.68;;
43345;SDS011;28937;51.160;4.146;2022-08-19T08:03:30;10.57;;;8.15;;
43345;SDS011;28937;51.160;4.146;2022-08-19T08:06:14;6.32;;;5.57;;
43345;SDS011;28937;51.160;4.146;2022-08-19T08:08:59;8.35;;;6.25;;
43345;SDS011;28937;51.160;4.146;2022-08-19T08:11:46;9.20;;;8.30;;
43345;SDS011;28937;51.160;4.146;2022-08-19T08:14:15;8.90;;;8.00;;
43345;SDS011;28937;51.160;4.146;2022-08-19T08:16:43;9.82;;;8.27;;
43345;SDS011;28937;51.160;4.146;2022-08-19T08:19:10;10.27;;;6.88;;
43345;SDS011;28937;51.160;4.146;2022-08-19T08:21:39;9.50;;;7.32;;
43345;SDS011;28937;51.160;4.146;2022-08-19T08:24:05;10.45;;;7.03;;
43345;SDS011;28937;51.160;4.146;2022-08-19T08:26:31;6.78;;;6.18;;
43345;SDS011;28937;51.160;4.146;2022-08-19T08:28:56;6.63;;;5.60;;
43345;SDS011;28937;51.160;4.146;2022-08-19T08:31:22;9.82;;;7.47;;
43345;SDS011;28937;51.160;4.146;2022-08-19T08:33:48;10.77;;;7.50;;
43345;SDS011;28937;51.160;4.146;2022-08-19T08:36:14;10.57;;;8.25;;
43345;SDS011;28937;51.160;4.146;2022-08-19T08:38:41;8.93;;;7.47;;
43345;SDS011;28937;51.160;4.146;2022-08-19T08:41:26;10.30;;;7.88;;
43345;SDS011;28937;51.160;4.146;2022-08-19T08:43:53;9.43;;;7.30;;
43345;SDS011;28937;51.160;4.146;2022-08-19T08:48:59;9.68;;;7.38;;
43345;SDS011;28937;51.160;4.146;2022-08-19T08:51:37;10.40;;;8.38;;
43345;SDS011;28937;51.160;4.146;2022-08-19T08:54:09;11.27;;;8.65;;
43345;SDS011;28937;51.160;4.146;2022-08-19T08:56:41;10.00;;;6.80;;
43345;SDS011;28937;51.160;4.146;2022-08-19T08:59:21;11.35;;;8.30;;
43345;SDS011;28937;51.160;4.146;2022-08-19T09:01:48;11.45;;;9.00;;
43345;SDS011;28937;51.160;4.146;2022-08-19T09:04:14;12.23;;;9.27;;
43345;SDS011;28937;51.160;4.146;2022-08-19T09:06:43;11.18;;;7.50;;
43345;SDS011;28937;51.160;4.146;2022-08-19T09:09:38;9.63;;;7.88;;
43345;SDS011;28937;51.160;4.146;2022-08-19T09:17:10;11.73;;;8.35;;
43345;SDS011;28937;51.160;4.146;2022-08-19T09:22:38;9.30;;;7.05;;
43345;SDS011;28937;51.160;4.146;2022-08-19T09:25:09;11.60;;;8.38;;
43345;SDS011;28937;51.160;4.146;2022-08-19T09:27:37;9.90;;;7.75;;
43345;SDS011;28937;51.160;4.146;2022-08-19T09:30:05;9.13;;;7.10;;
43345;SDS011;28937;51.160;4.146;2022-08-19T09:32:32;9.90;;;7.57;;
43345;SDS011;28937;51.160;4.146;2022-08-19T09:34:58;9.75;;;8.07;;
43345;SDS011;28937;51.160;4.146;2022-08-19T09:37:25;10.07;;;7.53;;
43345;SDS011;28937;51.160;4.146;2022-08-19T09:39:51;8.77;;;6.45;;
43345;SDS011;28937;51.160;4.146;2022-08-19T09:42:17;12.27;;;7.22;;
43345;SDS011;28937;51.160;4.146;2022-08-19T09:44:43;7.88;;;6.20;;
43345;SDS011;28937;51.160;4.146;2022-08-19T09:47:10;6.40;;;5.25;;
43345;SDS011;28937;51.160;4.146;2022-08-19T09:49:37;11.13;;;8.50;;
43345;SDS011;28937;51.160;4.146;2022-08-19T09:52:04;8.98;;;7.00;;
43345;SDS011;28937;51.160;4.146;2022-08-19T09:54:32;10.77;;;8.18;;
43345;SDS011;28937;51.160;4.146;2022-08-19T09:56:59;9.65;;;7.70;;
43345;SDS011;28937;51.160;4.146;2022-08-19T09:59:28;10.50;;;7.53;;
43345;SDS011;28937;51.160;4.146;2022-08-19T10:01:54;11.20;;;7.97;;
43345;SDS011;28937;51.160;4.146;2022-08-19T10:04:20;11.77;;;8.98;;
43345;SDS011;28937;51.160;4.146;2022-08-19T10:06:46;8.77;;;7.53;;
43345;SDS011;28937;51.160;4.146;2022-08-19T10:09:14;7.55;;;4.97;;
43345;SDS011;28937;51.160;4.146;2022-08-19T10:11:41;10.48;;;7.68;;
43345;SDS011;28937;51.160;4.146;2022-08-19T10:14:08;10.38;;;8.30;;
43345;SDS011;28937;51.160;4.146;2022-08-19T10:16:36;8.40;;;7.40;;
43345;SDS011;28937;51.160;4.146;2022-08-19T10:19:02;9.77;;;8.77;;
43345;SDS011;28937;51.160;4.146;2022-08-19T10:21:29;8.60;;;7.13;;
43345;SDS011;28937;51.160;4.146;2022-08-19T10:23:57;7.20;;;6.03;;
43345;SDS011;28937;51.160;4.146;2022-08-19T10:26:28;9.95;;;8.05;;
43345;SDS011;28937;51.160;4.146;2022-08-19T10:28:56;9.73;;;7.88;;
43345;SDS011;28937;51.160;4.146;2022-08-19T10:31:27;7.85;;;6.25;;
43345;SDS011;28937;51.160;4.146;2022-08-19T10:33:54;6.95;;;6.30;;
43345;SDS011;28937;51.160;4.146;2022-08-19T10:36:24;6.97;;;5.95;;
43345;SDS011;28937;51.160;4.146;2022-08-19T10:41:27;5.82;;;4.90;;
43345;SDS011;28937;51.160;4.146;2022-08-19T10:43:55;5.50;;;5.00;;
43345;SDS011;28937;51.160;4.146;2022-08-19T10:46:23;6.13;;;3.70;;
43345;SDS011;28937;51.160;4.146;2022-08-19T10:48:50;4.43;;;3.70;;
43345;SDS011;28937;51.160;4.146;2022-08-19T10:51:16;5.13;;;4.25;;
43345;SDS011;28937;51.160;4.146;2022-08-19T10:54:01;6.65;;;5.35;;
43345;SDS011;28937;51.160;4.146;2022-08-19T10:56:28;5.40;;;4.35;;
43345;SDS011;28937;51.160;4.146;2022-08-19T10:59:13;5.25;;;4.45;;
43345;SDS011;28937;51.160;4.146;2022-08-19T11:01:41;5.68;;;4.35;;
43345;SDS011;28937;51.160;4.146;2022-08-19T11:04:08;4.57;;;4.10;;
43345;SDS011;28937;51.160;4.146;2022-08-19T11:06:36;4.40;;;3.88;;
43345;SDS011;28937;51.160;4.146;2022-08-19T11:09:03;5.15;;;4.60;;
43345;SDS011;28937;51.160;4.146;2022-08-19T11:11:30;4.10;;;3.70;;
43345;SDS011;28937;51.160;4.146;2022-08-19T11:13:57;4.30;;;3.35;;
43345;SDS011;28937;51.160;4.146;2022-08-19T11:16:23;4.10;;;3.38;;
43345;SDS011;28937;51.160;4.146;2022-08-19T11:18:54;3.95;;;3.45;;
43345;SDS011;28937;51.160;4.146;2022-08-19T11:21:29;4.25;;;3.80;;
43345;SDS011;28937;51.160;4.146;2022-08-19T11:23:58;3.88;;;3.47;;
43345;SDS011;28937;51.160;4.146;2022-08-19T11:26:29;4.60;;;3.47;;
43345;SDS011;28937;51.160;4.146;2022-08-19T11:28:56;5.03;;;3.42;;
43345;SDS011;28937;51.160;4.146;2022-08-19T11:31:29;3.88;;;3.03;;
43345;SDS011;28937;51.160;4.146;2022-08-19T11:33:57;2.95;;;2.67;;
43345;SDS011;28937;51.160;4.146;2022-08-19T11:36:24;3.60;;;3.30;;
43345;SDS011;28937;51.160;4.146;2022-08-19T11:38:51;3.40;;;3.10;;
43345;SDS011;28937;51.160;4.146;2022-08-19T11:41:17;3.17;;;2.80;;
43345;SDS011;28937;51.160;4.146;2022-08-19T11:43:45;4.22;;;3.30;;
43345;SDS011;28937;51.160;4.146;2022-08-19T11:46:11;3.95;;;3.22;;
43345;SDS011;28937;51.160;4.146;2022-08-19T11:48:39;3.47;;;3.13;;
43345;SDS011;28937;51.160;4.146;2022-08-19T11:51:06;3.28;;;2.90;;
43345;SDS011;28937;51.160;4.146;2022-08-19T11:53:34;4.35;;;2.53;;
43345;SDS011;28937;51.160;4.146;2022-08-19T11:56:01;3.20;;;2.90;;
43345;SDS011;28937;51.160;4.146;2022-08-19T11:58:27;3.70;;;3.25;;
43345;SDS011;28937;51.160;4.146;2022-08-19T12:00:54;3.38;;;3.00;;
43345;SDS011;28937;51.160;4.146;2022-08-19T12:03:19;3.17;;;2.75;;
43345;SDS011;28937;51.160;4.146;2022-08-19T12:05:45;3.08;;;2.70;;
43345;SDS011;28937;51.160;4.146;2022-08-19T12:08:11;3.33;;;2.50;;
43345;SDS011;28937;51.160;4.146;2022-08-19T12:10:38;2.90;;;2.45;;
43345;SDS011;28937;51.160;4.146;2022-08-19T12:13:06;3.25;;;2.53;;
43345;SDS011;28937;51.160;4.146;2022-08-19T12:15:36;2.88;;;2.63;;
43345;SDS011;28937;51.160;4.146;2022-08-19T12:18:05;2.97;;;2.00;;
43345;SDS011;28937;51.160;4.146;2022-08-19T12:20:33;3.83;;;2.83;;
43345;SDS011;28937;51.160;4.146;2022-08-19T12:23:01;3.20;;;2.80;;
43345;SDS011;28937;51.160;4.146;2022-08-19T12:25:26;3.90;;;2.13;;
43345;SDS011;28937;51.160;4.146;2022-08-19T12:27:52;2.40;;;2.03;;
43345;SDS011;28937;51.160;4.146;2022-08-19T12:30:18;2.70;;;2.33;;
43345;SDS011;28937;51.160;4.146;2022-08-19T12:32:44;2.20;;;1.98;;
43345;SDS011;28937;51.160;4.146;2022-08-19T12:35:09;2.53;;;2.10;;
43345;SDS011;28937;51.160;4.146;2022-08-19T12:37:35;2.58;;;2.15;;
43345;SDS011;28937;51.160;4.146;2022-08-19T12:40:01;2.45;;;2.15;;
43345;SDS011;28937;51.160;4.146;2022-08-19T12:42:28;2.67;;;1.80;;
43345;SDS011;28937;51.160;4.146;2022-08-19T12:44:54;2.55;;;2.10;;
43345;SDS011;28937;51.160;4.146;2022-08-19T12:47:20;2.40;;;2.05;;
43345;SDS011;28937;51.160;4.146;2022-08-19T12:49:46;2.92;;;1.58;;
43345;SDS011;28937;51.160;4.146;2022-08-19T12:52:12;2.78;;;1.88;;
43345;SDS011;28937;51.160;4.146;2022-08-19T12:54:42;1.73;;;1.60;;
43345;SDS011;28937;51.160;4.146;2022-08-19T12:57:09;3.08;;;2.00;;
43345;SDS011;28937;51.160;4.146;2022-08-19T12:59:35;3.50;;;1.83;;
43345;SDS011;28937;51.160;4.146;2022-08-19T13:02:05;2.10;;;1.90;;
43345;SDS011;28937;51.160;4.146;2022-08-19T13:04:33;3.22;;;1.70;;
43345;SDS011;28937;51.160;4.146;2022-08-19T13:07:05;2.15;;;1.75;;
43345;SDS011;28937;51.160;4.146;2022-08-19T13:09:32;3.55;;;1.70;;
43345;SDS011;28937;51.160;4.146;2022-08-19T13:11:58;2.05;;;1.60;;
43345;SDS011;28937;51.160;4.146;2022-08-19T13:14:27;2.42;;;1.70;;
43345;SDS011;28937;51.160;4.146;2022-08-19T13:16:53;2.70;;;1.50;;
43345;SDS011;28937;51.160;4.146;2022-08-19T13:19:19;1.63;;;1.50;;
43345;SDS011;28937;51.160;4.146;2022-08-19T13:21:49;1.40;;;1.30;;
43345;SDS011;28937;51.160;4.146;2022-08-19T13:24:15;1.92;;;1.30;;
43345;SDS011;28937;51.160;4.146;2022-08-19T13:26:41;2.20;;;1.67;;
43345;SDS011;28937;51.160;4.146;2022-08-19T13:29:07;1.83;;;1.33;;
43345;SDS011;28937;51.160;4.146;2022-08-19T13:31:51;2.75;;;1.65;;
43345;SDS011;28937;51.160;4.146;2022-08-19T13:34:35;1.83;;;1.25;;
43345;SDS011;28937;51.160;4.146;2022-08-19T13:37:02;3.63;;;1.55;;
43345;SDS011;28937;51.160;4.146;2022-08-19T13:39:29;1.90;;;1.52;;
43345;SDS011;28937;51.160;4.146;2022-08-19T13:41:57;1.98;;;1.30;;
43345;SDS011;28937;51.160;4.146;2022-08-19T13:44:25;1.50;;;1.10;;
43345;SDS011;28937;51.160;4.146;2022-08-19T13:46:51;2.63;;;1.23;;
43345;SDS011;28937;51.160;4.146;2022-08-19T13:49:18;1.50;;;1.00;;
43345;SDS011;28937;51.160;4.146;2022-08-19T13:51:44;2.17;;;1.13;;
43345;SDS011;28937;51.160;4.146;2022-08-19T13:54:10;1.98;;;1.27;;
43345;SDS011;28937;51.160;4.146;2022-08-19T13:56:43;2.05;;;1.17;;
43345;SDS011;28937;51.160;4.146;2022-08-19T13:59:10;1.30;;;1.02;;
43345;SDS011;28937;51.160;4.146;2022-08-19T14:01:37;1.98;;;1.30;;
43345;SDS011;28937;51.160;4.146;2022-08-19T14:04:03;2.45;;;1.05;;
43345;SDS011;28937;51.160;4.146;2022-08-19T14:06:30;2.08;;;1.20;;
43345;SDS011;28937;51.160;4.146;2022-08-19T14:08:55;1.92;;;0.93;;
43345;SDS011;28937;51.160;4.146;2022-08-19T14:11:21;0.98;;;0.70;;
43345;SDS011;28937;51.160;4.146;2022-08-19T14:13:47;1.67;;;0.90;;
43345;SDS011;28937;51.160;4.146;2022-08-19T14:16:13;1.95;;;0.85;;
43345;SDS011;28937;51.160;4.146;2022-08-19T14:18:39;3.70;;;0.80;;
43345;SDS011;28937;51.160;4.146;2022-08-19T14:21:06;2.05;;;0.90;;
43345;SDS011;28937;51.160;4.146;2022-08-19T14:23:33;2.67;;;1.60;;
43345;SDS011;28937;51.160;4.146;2022-08-19T14:26:10;2.50;;;1.08;;
43345;SDS011;28937;51.160;4.146;2022-08-19T14:28:38;0.90;;;0.80;;
43345;SDS011;28937;51.160;4.146;2022-08-19T14:31:08;2.28;;;1.00;;
43345;SDS011;28937;51.160;4.146;2022-08-19T14:33:35;2.45;;;0.90;;
43345;SDS011;28937;51.160;4.146;2022-08-19T14:36:03;3.00;;;0.95;;
43345;SDS011;28937;51.160;4.146;2022-08-19T14:38:29;1.52;;;0.88;;
43345;SDS011;28937;51.160;4.146;2022-08-19T14:41:04;1.27;;;0.95;;
43345;SDS011;28937;51.160;4.146;2022-08-19T14:43:31;2.58;;;0.80;;
43345;SDS011;28937;51.160;4.146;2022-08-19T14:45:56;1.27;;;0.90;;
43345;SDS011;28937;51.160;4.146;2022-08-19T14:48:22;1.20;;;0.68;;
43345;SDS011;28937;51.160;4.146;2022-08-19T14:50:48;1.15;;;0.80;;
43345;SDS011;28937;51.160;4.146;2022-08-19T14:53:13;1.25;;;0.70;;
43345;SDS011;28937;51.160;4.146;2022-08-19T14:55:42;1.63;;;0.85;;
43345;SDS011;28937;51.160;4.146;2022-08-19T14:58:08;1.90;;;1.00;;